createdAt,value
2018-06-01T00:00:37.590Z,1008.86
2018-06-01T00:01:37.595Z,1008.89
2018-06-01T00:02:37.621Z,1008.86
2018-06-01T00:03:37.647Z,1008.87
2018-06-01T00:04:37.672Z,1008.89
2018-06-01T00:05:37.699Z,1008.90
2018-06-01T00:06:37.725Z,1008.87
2018-06-01T00:07:37.752Z,1008.91
2018-06-01T00:08:37.776Z,1008.85
2018-06-01T00:09:37.802Z,1008.87
2018-06-01T00:10:37.829Z,1008.95
2018-06-01T00:11:37.854Z,1008.96
2018-06-01T00:12:37.880Z,1008.92
2018-06-01T00:13:37.905Z,1008.91
2018-06-01T00:14:37.935Z,1008.94
2018-06-01T00:15:37.958Z,1008.93
2018-06-01T00:16:37.985Z,1008.87
2018-06-01T00:17:38.009Z,1008.86
2018-06-01T00:18:38.038Z,1008.82
2018-06-01T00:19:38.063Z,1008.85
2018-06-01T00:20:38.089Z,1008.86
2018-06-01T00:21:38.120Z,1008.90
2018-06-01T00:22:38.139Z,1008.88
2018-06-01T00:23:38.165Z,1008.83
2018-06-01T00:24:38.192Z,1008.79
2018-06-01T00:25:38.218Z,1008.82
2018-06-01T00:26:38.245Z,1008.85
2018-06-01T00:27:38.268Z,1008.88
2018-06-01T00:28:38.295Z,1008.88
2018-06-01T00:29:38.325Z,1008.82
2018-06-01T00:30:38.347Z,1008.84
2018-06-01T00:31:38.373Z,1008.81
2018-06-01T00:32:38.399Z,1008.82
2018-06-01T00:33:38.424Z,1008.80
2018-06-01T00:34:38.450Z,1008.77
2018-06-01T00:35:38.477Z,1008.79
2018-06-01T00:36:38.505Z,1008.81
2018-06-01T00:37:38.528Z,1008.80
2018-06-01T00:38:38.558Z,1008.76
2018-06-01T00:39:38.581Z,1008.74
2018-06-01T00:40:38.607Z,1008.78
2018-06-01T00:41:38.632Z,1008.76
2018-06-01T00:42:38.659Z,1008.75
2018-06-01T00:43:38.684Z,1008.78
2018-06-01T00:44:38.697Z,1008.74
2018-06-01T00:45:38.723Z,1008.74
2018-06-01T00:46:38.796Z,1008.74
2018-06-01T00:47:38.775Z,1008.76
2018-06-01T00:48:38.801Z,1008.80
2018-06-01T00:49:38.826Z,1008.79
2018-06-01T00:50:38.865Z,1008.79
2018-06-01T00:51:38.878Z,1008.81
2018-06-01T00:52:38.916Z,1008.80
2018-06-01T00:53:38.932Z,1008.80
2018-06-01T00:54:38.956Z,1008.83
2018-06-01T00:55:38.982Z,1008.77
2018-06-01T00:56:39.008Z,1008.81
2018-06-01T00:57:39.034Z,1008.78
2018-06-01T00:58:39.059Z,1008.77
2018-06-01T00:59:39.086Z,1008.76
2018-06-01T01:00:39.112Z,1008.77
2018-06-01T01:01:39.137Z,1008.78
2018-06-01T01:02:39.167Z,1008.78
2018-06-01T01:03:39.189Z,1008.80
2018-06-01T01:04:39.215Z,1008.78
2018-06-01T01:05:39.241Z,1008.76
2018-06-01T01:06:39.267Z,1008.75
2018-06-01T01:07:39.305Z,1008.75
2018-06-01T01:08:39.319Z,1008.74
2018-06-01T01:09:39.345Z,1008.80
2018-06-01T01:10:39.372Z,1008.80
2018-06-01T01:11:39.396Z,1008.79
2018-06-01T01:12:39.423Z,1008.78
2018-06-01T01:13:39.461Z,1008.80
2018-06-01T01:14:39.474Z,1008.77
2018-06-01T01:15:39.500Z,1008.78
2018-06-01T01:16:39.526Z,1008.81
2018-06-01T01:17:39.552Z,1008.77
2018-06-01T01:18:39.579Z,1008.75
2018-06-01T01:19:39.604Z,1008.77
2018-06-01T01:20:39.629Z,1008.77
2018-06-01T01:21:39.655Z,1008.73
2018-06-01T01:22:39.693Z,1008.76
2018-06-01T01:23:39.706Z,1008.76
2018-06-01T01:24:39.733Z,1008.76
2018-06-01T01:25:39.759Z,1008.77
2018-06-01T01:26:39.784Z,1008.76
2018-06-01T01:27:39.810Z,1008.78
2018-06-01T01:28:39.825Z,1008.82
2018-06-01T01:29:39.851Z,1008.84
2018-06-01T01:30:39.877Z,1008.83
2018-06-01T01:31:39.902Z,1008.84
2018-06-01T01:32:39.928Z,1008.88
2018-06-01T01:33:39.957Z,1008.83
2018-06-01T01:34:39.979Z,1008.80
2018-06-01T01:35:40.006Z,1008.83
2018-06-01T01:36:40.033Z,1008.84
2018-06-01T01:37:40.057Z,1008.86
2018-06-01T01:38:40.083Z,1008.84
2018-06-01T01:39:40.109Z,1008.83
2018-06-01T01:40:40.135Z,1008.88
2018-06-01T01:41:40.163Z,1008.86
2018-06-01T01:42:40.186Z,1008.88
2018-06-01T01:43:40.214Z,1008.84
2018-06-01T01:44:40.238Z,1008.82
2018-06-01T01:45:40.266Z,1008.81
2018-06-01T01:46:40.290Z,1008.82
2018-06-01T01:47:40.317Z,1008.81
2018-06-01T01:48:40.342Z,1008.79
2018-06-01T01:49:40.372Z,1008.82
2018-06-01T01:50:40.394Z,1008.86
2018-06-01T01:51:40.420Z,1008.85
2018-06-01T01:52:40.433Z,1008.87
2018-06-01T01:53:40.460Z,1008.86
2018-06-01T01:54:40.486Z,1008.85
2018-06-01T01:55:40.511Z,1008.86
2018-06-01T01:56:40.536Z,1008.88
2018-06-01T01:57:40.562Z,1008.89
2018-06-01T01:58:40.589Z,1008.88
2018-06-01T01:59:40.628Z,1008.89
2018-06-01T02:00:40.641Z,1008.89
2018-06-01T02:01:40.667Z,1008.91
2018-06-01T02:02:40.696Z,1008.89
2018-06-01T02:03:40.718Z,1008.90
2018-06-01T02:04:40.749Z,1008.90
2018-06-01T02:05:40.770Z,1008.88
2018-06-01T02:06:40.797Z,1008.87
2018-06-01T02:07:40.822Z,1008.89
2018-06-01T02:08:41.151Z,1008.88
2018-06-01T02:09:40.876Z,1008.88
2018-06-01T02:10:40.901Z,1008.87
2018-06-01T02:11:40.914Z,1008.89
2018-06-01T02:12:40.940Z,1008.90
2018-06-01T02:13:40.966Z,1008.90
2018-06-01T02:14:40.991Z,1008.86
2018-06-01T02:15:41.020Z,1008.85
2018-06-01T02:16:41.044Z,1008.87
2018-06-01T02:17:41.069Z,1008.87
2018-06-01T02:18:41.102Z,1008.91
2018-06-01T02:19:41.121Z,1008.89
2018-06-01T02:20:41.148Z,1008.90
2018-06-01T02:21:41.174Z,1008.89
2018-06-01T02:22:41.199Z,1008.89
2018-06-01T02:23:41.225Z,1008.88
2018-06-01T02:24:41.251Z,1008.87
2018-06-01T02:25:41.278Z,1008.87
2018-06-01T02:26:41.303Z,1008.88
2018-06-01T02:27:41.328Z,1008.87
2018-06-01T02:28:41.347Z,1008.86
2018-06-01T02:29:41.370Z,1008.85
2018-06-01T02:30:41.395Z,1008.86
2018-06-01T02:31:41.419Z,1008.87
2018-06-01T02:32:41.449Z,1008.89
2018-06-01T02:33:41.471Z,1008.88
2018-06-01T02:34:41.497Z,1008.87
2018-06-01T02:35:41.522Z,1008.95
2018-06-01T02:36:41.549Z,1008.95
2018-06-01T02:37:41.574Z,1008.96
2018-06-01T02:38:41.600Z,1008.99
2018-06-01T02:39:41.626Z,1008.96
2018-06-01T02:40:41.652Z,1008.98
2018-06-01T02:41:41.680Z,1008.99
2018-06-01T02:42:41.704Z,1008.96
2018-06-01T02:43:41.730Z,1009.00
2018-06-01T02:44:41.744Z,1009.00
2018-06-01T02:45:41.772Z,1009.03
2018-06-01T02:46:41.797Z,1009.00
2018-06-01T02:47:41.823Z,1008.98
2018-06-01T02:48:41.849Z,1008.99
2018-06-01T02:49:41.885Z,1008.99
2018-06-01T02:50:41.904Z,1008.98
2018-06-01T02:51:41.926Z,1008.97
2018-06-01T02:52:41.951Z,1009.01
2018-06-01T02:53:41.978Z,1009.03
2018-06-01T02:54:42.004Z,1009.02
2018-06-01T02:55:42.029Z,1009.03
2018-06-01T02:56:42.056Z,1009.01
2018-06-01T02:57:42.081Z,1009.02
2018-06-01T02:58:42.108Z,1009.03
2018-06-01T02:59:42.121Z,1009.02
2018-06-01T03:00:42.146Z,1009.02
2018-06-01T03:01:42.173Z,1009.06
2018-06-01T03:02:42.198Z,1009.05
2018-06-01T03:03:42.224Z,1009.07
2018-06-01T03:04:42.251Z,1009.05
2018-06-01T03:05:42.278Z,1009.09
2018-06-01T03:06:42.306Z,1009.10
2018-06-01T03:07:42.328Z,1009.02
2018-06-01T03:08:42.354Z,1009.02
2018-06-01T03:09:42.379Z,1009.03
2018-06-01T03:10:42.407Z,1009.03
2018-06-01T03:11:42.432Z,1009.01
2018-06-01T03:12:42.446Z,1009.01
2018-06-01T03:13:42.471Z,1009.04
2018-06-01T03:14:42.497Z,1009.00
2018-06-01T03:15:42.523Z,1009.01
2018-06-01T03:16:42.550Z,1009.00
2018-06-01T03:17:42.575Z,1009.03
2018-06-01T03:18:42.601Z,1009.02
2018-06-01T03:19:42.627Z,1009.04
2018-06-01T03:20:42.653Z,1009.03
2018-06-01T03:21:42.678Z,1009.05
2018-06-01T03:22:42.705Z,1009.03
2018-06-01T03:23:42.730Z,1009.04
2018-06-01T03:24:42.747Z,1009.04
2018-06-01T03:25:42.769Z,1009.08
2018-06-01T03:26:42.794Z,1009.07
2018-06-01T03:27:42.822Z,1009.06
2018-06-01T03:28:42.847Z,1009.09
2018-06-01T03:29:42.872Z,1009.04
2018-06-01T03:30:42.899Z,1009.06
2018-06-01T03:31:42.925Z,1009.12
2018-06-01T03:32:42.951Z,1009.05
2018-06-01T03:33:42.976Z,1009.07
2018-06-01T03:34:43.002Z,1009.12
2018-06-01T03:35:43.032Z,1009.11
2018-06-01T03:36:43.054Z,1009.12
2018-06-01T03:37:43.068Z,1009.09
2018-06-01T03:38:43.094Z,1009.06
2018-06-01T03:39:43.119Z,1009.04
2018-06-01T03:40:43.146Z,1008.99
2018-06-01T03:41:43.172Z,1009.03
2018-06-01T03:42:43.197Z,1009.02
2018-06-01T03:43:43.223Z,1009.03
2018-06-01T03:44:43.250Z,1009.05
2018-06-01T03:45:43.279Z,1009.03
2018-06-01T03:46:43.301Z,1009.03
2018-06-01T03:47:43.329Z,1008.97
2018-06-01T03:48:43.341Z,1008.99
2018-06-01T03:49:43.381Z,1008.99
2018-06-01T03:50:43.393Z,1008.96
2018-06-01T03:51:43.418Z,1008.94
2018-06-01T03:52:43.444Z,1008.93
2018-06-01T03:53:43.469Z,1009.00
2018-06-01T03:54:43.498Z,1008.96
2018-06-01T03:55:43.522Z,1008.98
2018-06-01T03:56:43.549Z,1008.97
2018-06-01T03:57:43.580Z,1008.97
2018-06-01T03:58:43.599Z,1009.05
2018-06-01T03:59:43.625Z,1009.02
2018-06-01T04:00:43.653Z,1009.11
2018-06-01T04:01:43.666Z,1009.10
2018-06-01T04:02:43.695Z,1009.12
2018-06-01T04:03:43.718Z,1009.15
2018-06-01T04:04:43.746Z,1009.12
2018-06-01T04:05:43.771Z,1009.14
2018-06-01T04:06:43.796Z,1009.16
2018-06-01T04:07:43.821Z,1009.15
2018-06-01T04:08:43.847Z,1009.16
2018-06-01T04:09:43.877Z,1009.17
2018-06-01T04:10:43.898Z,1009.16
2018-06-01T04:11:43.925Z,1009.18
2018-06-01T04:12:43.955Z,1009.17
2018-06-01T04:13:43.976Z,1009.19
2018-06-01T04:14:44.002Z,1009.17
2018-06-01T04:15:44.016Z,1009.16
2018-06-01T04:16:44.049Z,1009.16
2018-06-01T04:17:44.067Z,1009.20
2018-06-01T04:18:44.093Z,1009.16
2018-06-01T04:19:44.119Z,1009.17
2018-06-01T04:20:44.158Z,1009.16
2018-06-01T04:21:44.171Z,1009.15
2018-06-01T04:22:44.197Z,1009.16
2018-06-01T04:23:44.222Z,1009.12
2018-06-01T04:24:44.248Z,1009.16
2018-06-01T04:25:44.274Z,1009.19
2018-06-01T04:26:44.314Z,1009.16
2018-06-01T04:27:44.376Z,1009.14
2018-06-01T04:28:44.354Z,1009.17
2018-06-01T04:29:44.378Z,1009.17
2018-06-01T04:30:44.394Z,1009.17
2018-06-01T04:31:44.422Z,1009.15
2018-06-01T04:32:44.444Z,1009.17
2018-06-01T04:33:44.471Z,1009.11
2018-06-01T04:34:44.496Z,1009.12
2018-06-01T04:35:44.522Z,1009.14
2018-06-01T04:36:44.549Z,1009.11
2018-06-01T04:37:44.574Z,1009.09
2018-06-01T04:38:44.601Z,1009.12
2018-06-01T04:39:44.626Z,1009.11
2018-06-01T04:40:44.651Z,1009.12
2018-06-01T04:41:44.678Z,1009.09
2018-06-01T04:42:44.703Z,1009.13
2018-06-01T04:43:44.730Z,1009.14
2018-06-01T04:44:44.756Z,1009.17
2018-06-01T04:45:44.782Z,1009.14
2018-06-01T04:46:44.806Z,1009.16
2018-06-01T04:47:44.833Z,1009.20
2018-06-01T04:48:44.846Z,1009.19
2018-06-01T04:49:44.873Z,1009.20
2018-06-01T04:50:44.898Z,1009.23
2018-06-01T04:51:44.925Z,1009.23
2018-06-01T04:52:44.950Z,1009.16
2018-06-01T04:53:44.975Z,1009.18
2018-06-01T04:54:45.001Z,1009.19
2018-06-01T04:55:45.027Z,1009.17
2018-06-01T04:56:45.053Z,1009.20
2018-06-01T04:57:45.079Z,1009.16
2018-06-01T04:58:45.106Z,1009.16
2018-06-01T04:59:45.131Z,1009.15
2018-06-01T05:00:45.157Z,1009.19
2018-06-01T05:01:45.183Z,1009.16
2018-06-01T05:02:45.209Z,1009.15
2018-06-01T05:03:45.235Z,1009.15
2018-06-01T05:04:45.260Z,1009.22
2018-06-01T05:05:45.287Z,1009.19
2018-06-01T05:06:45.350Z,1009.26
2018-06-01T05:07:45.337Z,1009.26
2018-06-01T05:08:45.364Z,1009.23
2018-06-01T05:09:45.390Z,1009.23
2018-06-01T05:10:45.417Z,1009.25
2018-06-01T05:11:45.441Z,1009.23
2018-06-01T05:12:45.467Z,1009.18
2018-06-01T05:13:45.493Z,1009.24
2018-06-01T05:14:45.520Z,1009.20
2018-06-01T05:15:45.545Z,1009.21
2018-06-01T05:16:45.571Z,1009.24
2018-06-01T05:17:45.597Z,1009.23
2018-06-01T05:18:45.623Z,1009.17
2018-06-01T05:19:45.649Z,1009.18
2018-06-01T05:20:45.663Z,1009.19
2018-06-01T05:21:45.689Z,1009.21
2018-06-01T05:22:45.717Z,1009.21
2018-06-01T05:23:45.758Z,1009.19
2018-06-01T05:24:45.768Z,1009.29
2018-06-01T05:25:45.797Z,1009.24
2018-06-01T05:26:45.831Z,1009.22
2018-06-01T05:27:45.856Z,1009.24
2018-06-01T05:28:45.882Z,1009.23
2018-06-01T05:29:45.908Z,1009.23
2018-06-01T05:30:45.935Z,1009.27
2018-06-01T05:31:45.960Z,1009.22
2018-06-01T05:32:45.999Z,1009.22
2018-06-01T05:33:46.013Z,1009.22
2018-06-01T05:34:46.038Z,1009.22
2018-06-01T05:35:46.064Z,1009.21
2018-06-01T05:36:46.090Z,1009.21
2018-06-01T05:37:46.116Z,1009.23
2018-06-01T05:38:46.142Z,1009.17
2018-06-01T05:39:46.167Z,1009.19
2018-06-01T05:40:46.194Z,1009.17
2018-06-01T05:41:46.219Z,1009.20
2018-06-01T05:42:46.246Z,1009.17
2018-06-01T05:43:46.284Z,1009.18
2018-06-01T05:44:46.310Z,1009.14
2018-06-01T05:45:46.336Z,1009.17
2018-06-01T05:46:46.362Z,1009.16
2018-06-01T05:47:46.389Z,1009.17
2018-06-01T05:48:46.414Z,1009.21
2018-06-01T05:49:46.440Z,1009.19
2018-06-01T05:50:46.465Z,1009.15
2018-06-01T05:51:46.500Z,1009.18
2018-06-01T05:52:46.520Z,1009.17
2018-06-01T05:53:46.595Z,1009.15
2018-06-01T05:54:46.573Z,1009.18
2018-06-01T05:55:46.606Z,1009.14
2018-06-01T05:56:46.633Z,1009.15
2018-06-01T05:57:46.662Z,1009.12
2018-06-01T05:58:46.685Z,1009.12
2018-06-01T05:59:46.710Z,1009.18
2018-06-01T06:00:46.739Z,1009.16
2018-06-01T06:01:46.763Z,1009.17
2018-06-01T06:02:46.789Z,1009.16
2018-06-01T06:03:46.815Z,1009.17
2018-06-01T06:04:46.840Z,1009.14
2018-06-01T06:05:46.867Z,1009.22
2018-06-01T06:06:46.909Z,1009.22
2018-06-01T06:07:46.919Z,1009.19
2018-06-01T06:08:46.957Z,1009.21
2018-06-01T06:09:46.983Z,1009.19
2018-06-01T06:10:47.010Z,1009.16
2018-06-01T06:11:47.035Z,1009.15
2018-06-01T06:12:47.061Z,1009.13
2018-06-01T06:13:47.087Z,1009.13
2018-06-01T06:14:47.113Z,1009.10
2018-06-01T06:15:47.138Z,1009.12
2018-06-01T06:16:47.166Z,1009.10
2018-06-01T06:17:47.206Z,1009.16
2018-06-01T06:18:47.228Z,1009.11
2018-06-01T06:19:47.271Z,1009.13
2018-06-01T06:20:47.279Z,1009.13
2018-06-01T06:21:47.306Z,1009.12
2018-06-01T06:22:47.331Z,1009.09
2018-06-01T06:23:47.371Z,1009.06
2018-06-01T06:24:47.396Z,1009.06
2018-06-01T06:25:47.423Z,1009.08
2018-06-01T06:26:47.449Z,1009.08
2018-06-01T06:27:47.486Z,1009.10
2018-06-01T06:28:47.512Z,1009.10
2018-06-01T06:29:47.538Z,1009.16
2018-06-01T06:30:47.565Z,1009.09
2018-06-01T06:31:47.604Z,1009.15
2018-06-01T06:32:47.628Z,1009.14
2018-06-01T06:33:47.654Z,1009.19
2018-06-01T06:34:47.692Z,1009.24
2018-06-01T06:35:47.720Z,1009.21
2018-06-01T06:36:47.744Z,1009.27
2018-06-01T06:37:47.785Z,1009.34
2018-06-01T06:38:47.810Z,1009.32
2018-06-01T06:39:47.844Z,1009.32
2018-06-01T06:40:48.065Z,1009.31
2018-06-01T06:41:47.899Z,1009.29
2018-06-01T06:42:47.925Z,1009.27
2018-06-01T06:43:47.955Z,1009.27
2018-06-01T06:44:47.992Z,1009.28
2018-06-01T06:45:48.017Z,1009.31
2018-06-01T06:46:48.054Z,1009.33
2018-06-01T06:47:48.079Z,1009.35
2018-06-01T06:48:48.106Z,1009.39
2018-06-01T06:49:48.144Z,1009.40
2018-06-01T06:50:48.182Z,1009.38
2018-06-01T06:51:48.207Z,1009.45
2018-06-01T06:52:48.235Z,1009.42
2018-06-01T06:53:48.273Z,1009.43
2018-06-01T06:54:48.320Z,1009.43
2018-06-01T06:55:48.344Z,1009.46
2018-06-01T06:56:48.376Z,1009.46
2018-06-01T06:57:48.402Z,1009.51
2018-06-01T06:58:48.441Z,1009.51
2018-06-01T06:59:48.479Z,1009.47
2018-06-01T07:00:48.504Z,1009.50
2018-06-01T07:01:48.543Z,1009.55
2018-06-01T07:02:48.608Z,1009.53
2018-06-01T07:03:48.607Z,1009.54
2018-06-01T07:04:48.644Z,1009.54
2018-06-01T07:05:48.674Z,1009.50
2018-06-01T07:06:48.711Z,1009.54
2018-06-01T07:07:48.748Z,1009.50
2018-06-01T07:08:48.788Z,1009.52
2018-06-01T07:09:48.814Z,1009.54
2018-06-01T07:10:48.858Z,1009.52
2018-06-01T07:11:48.889Z,1009.51
2018-06-01T07:12:48.932Z,1009.49
2018-06-01T07:13:48.952Z,1009.49
2018-06-01T07:14:48.993Z,1009.46
2018-06-01T07:15:49.030Z,1009.49
2018-06-01T07:16:49.069Z,1009.52
2018-06-01T07:17:49.095Z,1009.53
2018-06-01T07:18:49.132Z,1009.58
2018-06-01T07:19:49.171Z,1009.58
2018-06-01T07:20:49.209Z,1009.56
2018-06-01T07:21:49.235Z,1009.56
2018-06-01T07:22:49.274Z,1009.56
2018-06-01T07:23:49.312Z,1009.55
2018-06-01T07:24:49.337Z,1009.54
2018-06-01T07:25:49.377Z,1009.54
2018-06-01T07:26:49.415Z,1009.57
2018-06-01T07:27:49.489Z,1009.58
2018-06-01T07:28:49.480Z,1009.56
2018-06-01T07:29:49.517Z,1009.58
2018-06-01T07:30:49.545Z,1009.57
2018-06-01T07:31:49.583Z,1009.59
2018-06-01T07:32:49.620Z,1009.60
2018-06-01T07:33:49.646Z,1009.66
2018-06-01T07:34:50.035Z,1009.67
2018-06-01T07:35:49.711Z,1009.67
2018-06-01T07:36:49.762Z,1009.67
2018-06-01T07:37:49.792Z,1009.77
2018-06-01T07:38:49.835Z,1009.75
2018-06-01T07:39:49.851Z,1009.77
2018-06-01T07:40:49.883Z,1009.85
2018-06-01T07:41:49.917Z,1009.83
2018-06-01T07:42:49.955Z,1009.78
2018-06-01T07:43:49.995Z,1009.86
2018-06-01T07:44:50.023Z,1009.86
2018-06-01T07:45:50.058Z,1009.88
2018-06-01T07:46:50.113Z,1009.91
2018-06-01T07:47:50.123Z,1009.91
2018-06-01T07:48:50.160Z,1009.92
2018-06-01T07:49:50.200Z,1009.96
2018-06-01T07:50:50.226Z,1010.00
2018-06-01T07:51:50.263Z,1009.97
2018-06-01T07:52:50.302Z,1009.96
2018-06-01T07:53:50.329Z,1010.02
2018-06-01T07:54:50.372Z,1010.05
2018-06-01T07:55:50.405Z,1010.01
2018-06-01T07:56:50.432Z,1010.01
2018-06-01T07:57:50.470Z,1009.94
2018-06-01T07:58:50.507Z,1009.96
2018-06-01T07:59:50.546Z,1009.94
2018-06-01T08:00:50.584Z,1009.91
2018-06-01T08:01:50.614Z,1009.92
2018-06-01T08:02:50.639Z,1009.94
2018-06-01T08:03:50.674Z,1009.95
2018-06-01T08:04:50.713Z,1010.00
2018-06-01T08:05:50.739Z,1010.03
2018-06-01T08:06:50.778Z,1010.02
2018-06-01T08:07:50.816Z,1010.02
2018-06-01T08:08:50.841Z,1010.09
2018-06-01T08:09:50.881Z,1010.10
2018-06-01T08:10:50.924Z,1010.11
2018-06-01T08:11:50.957Z,1010.07
2018-06-01T08:12:50.995Z,1010.06
2018-06-01T08:13:51.023Z,1010.04
2018-06-01T08:14:51.072Z,1009.98
2018-06-01T08:15:51.099Z,1009.94
2018-06-01T08:16:51.135Z,1010.00
2018-06-01T08:17:51.177Z,1009.99
2018-06-01T08:18:51.213Z,1009.97
2018-06-01T08:19:51.252Z,1009.94
2018-06-01T08:20:51.290Z,1010.01
2018-06-01T08:21:51.329Z,1010.01
2018-06-01T08:22:51.366Z,1010.00
2018-06-01T08:23:51.411Z,1010.08
2018-06-01T08:24:51.443Z,1010.11
2018-06-01T08:25:51.486Z,1010.19
2018-06-01T08:26:51.525Z,1010.23
2018-06-01T08:27:51.559Z,1010.21
2018-06-01T08:28:51.598Z,1010.21
2018-06-01T08:29:51.637Z,1010.19
2018-06-01T08:31:51.713Z,1010.17
2018-06-01T08:32:51.752Z,1010.15
2018-06-01T08:33:51.789Z,1010.16
2018-06-01T08:34:51.829Z,1010.13
2018-06-01T08:35:51.867Z,1010.12
2018-06-01T08:36:51.948Z,1010.05
2018-06-01T08:37:51.946Z,1009.98
2018-06-01T08:38:51.982Z,1009.96
2018-06-01T08:39:52.068Z,1009.96
2018-06-01T08:40:52.059Z,1009.91
2018-06-01T08:41:52.101Z,1009.90
2018-06-01T08:42:52.134Z,1009.94
2018-06-01T08:43:52.176Z,1009.92
2018-06-01T08:44:52.211Z,1009.94
2018-06-01T08:45:52.254Z,1009.90
2018-06-01T08:46:52.290Z,1009.91
2018-06-01T08:47:52.327Z,1009.87
2018-06-01T08:48:52.368Z,1009.95
2018-06-01T08:49:52.405Z,1009.91
2018-06-01T08:50:52.455Z,1009.93
2018-06-01T08:51:52.507Z,1009.86
2018-06-01T08:52:52.532Z,1009.86
2018-06-01T08:53:52.570Z,1009.83
2018-06-01T08:54:52.609Z,1009.86
2018-06-01T08:55:52.648Z,1009.85
2018-06-01T08:56:52.723Z,1009.86
2018-06-01T08:57:52.737Z,1009.84
2018-06-01T08:58:52.784Z,1009.81
2018-06-01T08:59:52.819Z,1009.79
2018-06-01T09:00:52.870Z,1009.77
2018-06-01T09:01:52.902Z,1009.81
2018-06-01T09:02:52.944Z,1009.75
2018-06-01T09:03:52.992Z,1009.72
2018-06-01T09:04:53.030Z,1009.75
2018-06-01T09:05:53.069Z,1009.70
2018-06-01T09:06:53.107Z,1009.70
2018-06-01T09:07:53.158Z,1009.71
2018-06-01T09:08:53.196Z,1009.71
2018-06-01T09:09:53.234Z,1009.72
2018-06-01T09:10:53.285Z,1009.76
2018-06-01T09:11:53.326Z,1009.70
2018-06-01T09:12:53.376Z,1009.68
2018-06-01T09:13:53.425Z,1009.63
2018-06-01T09:14:53.453Z,1009.62
2018-06-01T09:15:53.504Z,1009.67
2018-06-01T09:16:53.540Z,1009.63
2018-06-01T09:17:53.580Z,1009.64
2018-06-01T09:18:53.631Z,1009.68
2018-06-01T09:19:53.681Z,1009.64
2018-06-01T09:20:53.711Z,1009.68
2018-06-01T09:21:53.746Z,1009.71
2018-06-01T09:22:53.796Z,1009.65
2018-06-01T09:23:53.835Z,1009.68
2018-06-01T09:24:53.873Z,1009.71
2018-06-01T09:25:54.261Z,1009.69
2018-06-01T09:26:53.949Z,1009.67
2018-06-01T09:27:54.013Z,1009.70
2018-06-01T09:28:54.040Z,1009.73
2018-06-01T09:29:54.078Z,1009.72
2018-06-01T09:30:54.127Z,1009.79
2018-06-01T09:32:54.194Z,1009.83
2018-06-01T09:33:54.231Z,1009.82
2018-06-01T09:34:54.270Z,1009.88
2018-06-01T09:35:54.313Z,1009.88
2018-06-01T09:36:54.352Z,1009.83
2018-06-01T09:37:54.387Z,1009.86
2018-06-01T09:38:54.424Z,1009.87
2018-06-01T09:39:54.462Z,1009.85
2018-06-01T09:40:54.501Z,1009.86
2018-06-01T09:41:54.538Z,1009.87
2018-06-01T09:42:54.582Z,1009.84
2018-06-01T09:43:54.615Z,1009.81
2018-06-01T09:44:54.644Z,1009.83
2018-06-01T09:45:54.681Z,1009.83
2018-06-01T09:46:54.718Z,1009.83
2018-06-01T09:47:54.757Z,1009.80
2018-06-01T09:48:54.796Z,1009.80
2018-06-01T09:49:54.833Z,1009.75
2018-06-01T09:50:54.871Z,1009.77
2018-06-01T09:51:54.911Z,1009.79
2018-06-01T09:52:54.948Z,1009.85
2018-06-01T09:53:54.987Z,1009.81
2018-06-01T09:54:55.027Z,1009.85
2018-06-01T09:55:55.063Z,1009.81
2018-06-01T09:56:55.102Z,1009.83
2018-06-01T09:57:55.141Z,1009.83
2018-06-01T09:58:55.191Z,1009.85
2018-06-01T09:59:55.217Z,1009.80
2018-06-01T10:00:55.255Z,1009.82
2018-06-01T10:01:55.295Z,1009.81
2018-06-01T10:02:55.333Z,1009.85
2018-06-01T10:03:55.384Z,1009.85
2018-06-01T10:04:55.423Z,1009.82
2018-06-01T10:05:55.465Z,1009.80
2018-06-01T10:06:55.498Z,1009.84
2018-06-01T10:07:55.538Z,1009.84
2018-06-01T10:09:55.626Z,1009.86
2018-06-01T10:10:55.664Z,1009.84
2018-06-01T10:11:55.715Z,1009.84
2018-06-01T10:12:55.754Z,1009.89
2018-06-01T10:13:55.793Z,1009.86
2018-06-01T10:14:55.843Z,1009.91
2018-06-01T10:15:55.882Z,1009.88
2018-06-01T10:16:55.922Z,1009.85
2018-06-01T10:17:55.959Z,1009.89
2018-06-01T10:18:56.010Z,1009.92
2018-06-01T10:19:56.048Z,1009.91
2018-06-01T10:20:56.098Z,1009.88
2018-06-01T10:21:56.137Z,1009.87
2018-06-01T10:22:56.175Z,1009.86
2018-06-01T10:23:56.227Z,1009.82
2018-06-01T10:24:56.266Z,1009.79
2018-06-01T10:25:56.303Z,1009.81
2018-06-01T10:26:56.355Z,1009.79
2018-06-01T10:27:56.393Z,1009.77
2018-06-01T10:28:56.443Z,1009.79
2018-06-01T10:30:56.532Z,1009.77
2018-06-01T10:31:56.571Z,1009.77
2018-06-01T10:32:56.639Z,1009.74
2018-06-01T10:34:56.724Z,1009.76
2018-06-01T10:35:56.751Z,1009.72
2018-06-01T10:36:56.801Z,1009.76
2018-06-01T10:37:57.140Z,1009.79
2018-06-01T10:38:56.889Z,1009.74
2018-06-01T10:39:56.938Z,1009.70
2018-06-01T10:40:56.979Z,1009.71
2018-06-01T10:41:57.018Z,1009.74
2018-06-01T10:42:57.068Z,1009.76
2018-06-01T10:43:57.119Z,1009.76
2018-06-01T10:44:57.158Z,1009.71
2018-06-01T10:45:57.209Z,1009.73
2018-06-01T10:46:57.247Z,1009.75
2018-06-01T10:47:57.298Z,1009.71
2018-06-01T10:48:57.340Z,1009.67
2018-06-01T10:49:57.388Z,1009.62
2018-06-01T10:50:57.439Z,1009.65
2018-06-01T10:51:57.476Z,1009.56
2018-06-01T10:52:57.527Z,1009.60
2018-06-01T10:53:57.567Z,1009.55
2018-06-01T10:54:57.617Z,1009.58
2018-06-01T10:55:57.656Z,1009.56
2018-06-01T10:56:57.706Z,1009.53
2018-06-01T10:57:57.748Z,1009.52
2018-06-01T10:58:57.797Z,1009.52
2018-06-01T10:59:57.834Z,1009.57
2018-06-01T11:00:57.874Z,1009.54
2018-06-01T11:01:57.924Z,1009.54
2018-06-01T11:02:57.961Z,1009.54
2018-06-01T11:03:58.001Z,1009.50
2018-06-01T11:04:58.051Z,1009.49
2018-06-01T11:05:58.090Z,1009.50
2018-06-01T11:06:58.134Z,1009.48
2018-06-01T11:07:58.166Z,1009.51
2018-06-01T11:08:58.205Z,1009.57
2018-06-01T11:09:58.243Z,1009.49
2018-06-01T11:10:58.293Z,1009.48
2018-06-01T11:11:58.332Z,1009.50
2018-06-01T11:12:58.370Z,1009.52
2018-06-01T11:13:58.410Z,1009.53
2018-06-01T11:14:58.447Z,1009.50
2018-06-01T11:15:58.487Z,1009.57
2018-06-01T11:16:58.525Z,1009.56
2018-06-01T11:17:58.563Z,1009.60
2018-06-01T11:18:58.606Z,1009.64
2018-06-01T11:19:58.640Z,1009.67
2018-06-01T11:20:58.718Z,1009.71
2018-06-01T11:21:58.720Z,1009.72
2018-06-01T11:22:58.760Z,1009.74
2018-06-01T11:23:58.807Z,1009.71
2018-06-01T11:24:58.845Z,1009.66
2018-06-01T11:25:58.882Z,1009.65
2018-06-01T11:26:58.931Z,1009.64
2018-06-01T11:27:58.959Z,1009.58
2018-06-01T11:28:58.999Z,1009.58
2018-06-01T11:29:59.036Z,1009.53
2018-06-01T11:30:59.076Z,1009.42
2018-06-01T11:31:59.127Z,1009.35
2018-06-01T11:32:59.177Z,1009.31
2018-06-01T11:33:59.206Z,1009.21
2018-06-01T11:34:59.241Z,1009.20
2018-06-01T11:35:59.292Z,1009.16
2018-06-01T11:36:59.330Z,1009.11
2018-06-01T11:37:59.370Z,1009.09
2018-06-01T11:38:59.420Z,1009.06
2018-06-01T11:39:59.462Z,1009.06
2018-06-01T11:40:59.509Z,1009.02
2018-06-01T11:41:59.548Z,1008.98
2018-06-01T11:42:59.586Z,1008.94
2018-06-01T11:43:59.629Z,1008.93
2018-06-01T11:44:59.674Z,1008.90
2018-06-01T11:45:59.713Z,1008.91
2018-06-01T11:46:59.765Z,1008.91
2018-06-01T11:47:59.804Z,1008.88
2018-06-01T11:48:59.841Z,1008.83
2018-06-01T11:49:59.892Z,1008.85
2018-06-01T11:50:59.930Z,1008.80
2018-06-01T11:51:59.981Z,1008.82
2018-06-01T11:53:00.020Z,1008.76
2018-06-01T11:54:00.071Z,1008.77
2018-06-01T11:55:00.109Z,1008.79
2018-06-01T11:57:00.199Z,1008.75
2018-06-01T11:58:00.250Z,1008.73
2018-06-01T11:59:00.287Z,1008.72
2018-06-01T12:00:00.340Z,1008.76
2018-06-01T12:01:00.379Z,1008.68
2018-06-01T12:02:00.430Z,1008.66
2018-06-01T12:03:00.466Z,1008.66
2018-06-01T12:04:00.517Z,1008.63
2018-06-01T12:05:00.556Z,1008.65
2018-06-01T12:06:00.608Z,1008.61
2018-06-01T12:07:00.658Z,1008.60
2018-06-01T12:08:00.695Z,1008.57
2018-06-01T12:09:00.746Z,1008.53
2018-06-01T12:10:00.786Z,1008.51
2018-06-01T12:11:00.886Z,1008.50
2018-06-01T12:12:00.879Z,1008.50